Airfield :







YOU CAN JOIN US ON...

 
LOGIN :

Register | Disclaimer

   EN    FR    IT 

 









Legend :    VFR   Marginal VFR   IFR   Intensive IFR   Very Intensive IFR
Visi :
Ceiling :
>= 8 km
>= 3000ft
5 to 8 km
1000 to 3000 ft
1500m to 5 km
500 to 1000 ft
800 to 1500m
200 to 500 ft
< 800m
< 200 ft
Symbols :   Thunderstorms  Fog  Heavy snow  Heavy precipitations  Wind > 20 kt






- Airport Elevation : 38 ft
- IATA code : YMH


CYMH - Mary's Harbour

CURRENT METAR :
  • 271100Z AUTO 18007KT 9SM OVC013 15/14 A2986 RMK SLP115 DENSITY ALT 100FT

EXPIRED METARs :
  • 271033Z AUTO 18007KT 9SM BKN013 OVC028 14/13 A2985 RMK SLP110 DENSITY ALT 100FT
  • 271000Z AUTO 17006KT 9SM FEW015 BKN031 OVC040 14/13 A2983 RMK SLP103 DENSITY ALT 100FT
  • 270935Z AUTO 20008KT 9SM SCT017 OVC040 14/13 A2982 RMK SLP101 DENSITY ALT 100FT
  • 270900Z AUTO 22010G16KT 9SM BKN017 BKN029 OVC037 15/13 A2982 RMK SLP100 DENSITY ALT 200FT

TAF TAF CYMH
Valid from the 27 at 09:00 until the 27 at 21:00 UTC


270840Z 2709/2721 22006KT P6SM BKN015 OVC060
TEMPO 2709/2715 SCT015 BKN060
FM271500 23015G25KT P6SM BKN025
TEMPO 2715/2719 BKN020
FM271900 22015G25KT P6SM SCT020 RMK FCST BASED ON AUTO OBS. NXT FCST BY 271400Z
CZQX FIR / North America



MET'MAP, your aeronautical weather chart ! - Copyright ORBIFLY December 2007 - Disclaimer

ORBIFLY MET'MAP TEAM :

Programming & Development : Alexandra Zaïnal
Original concept : Baudouin d'Aumeries
Technical & hardware support : Manuel Goepfert
Assistance : Marc-Olivier Méhu




SOURCES & CREDITS :

   NOAA